Time;durP1;ratioP1;P1;durP2;ratioP2;P2;SDS_P1;SDS_P2;PMS_P1;PMS_P2;Temp;Humidity;BMP_temperature;BMP_pressure;BME280_temperature;BME280_humidity;BME280_pressure;Samples;Min_cycle;Max_cycle;Signal;HPM_P1;HPM_P2
2024/01/07 00:00:34;;;;;;;5.78;3.97;;;11.50;96.70;;;;;;5084368;28;20048;-78
2024/01/07 00:03:06;;;;;;;6.38;4.60;;;11.60;96.70;;;;;;5084688;28;20060;-78
2024/01/07 00:05:39;;;;;;;4.53;3.67;;;11.50;96.70;;;;;;5082528;28;20534;-79
2024/01/07 00:08:08;;;;;;;3.47;2.90;;;11.50;96.70;;;;;;5083269;28;20071;-78
2024/01/07 00:10:42;;;;;;;6.60;5.07;;;11.50;96.70;;;;;;5066698;28;20536;-78
2024/01/07 00:13:14;;;;;;;5.78;4.85;;;11.50;96.70;;;;;;5084808;28;20412;-78
2024/01/07 00:16:17;;;;;;;5.57;4.55;;;11.40;96.70;;;;;;5066347;28;20114;-78
2024/01/07 00:18:46;;;;;;;6.10;4.03;;;11.50;96.70;;;;;;5084277;28;20591;-78
2024/01/07 00:21:38;;;;;;;5.07;3.58;;;11.50;96.70;;;;;;5080089;28;20616;-78
2024/01/07 00:24:07;;;;;;;7.85;3.50;;;11.50;96.70;;;;;;5080755;28;20563;-78
2024/01/07 00:30:55;;;;;;;4.45;3.33;;;11.50;96.70;;;;;;5087934;28;20047;-78
2024/01/07 00:33:34;;;;;;;;;;;;;;;;;;;;;
2024/01/07 00:36:10;;;;;;;5.28;4.03;;;11.30;96.70;;;;;;5068257;28;20075;-78
2024/01/07 00:38:51;;;;;;;;;;;;;;;;;;;;;
2024/01/07 00:41:27;;;;;;;5.93;4.93;;;11.30;96.70;;;;;;5081773;28;20056;-78
2024/01/07 00:43:58;;;;;;;4.88;4.30;;;11.30;96.70;;;;;;5051625;28;21134;-78
2024/01/07 00:50:31;;;;;;;8.80;6.35;;;11.20;96.70;;;;;;4998220;28;20061;-78
2024/01/07 00:53:03;;;;;;;7.50;6.50;;;11.20;96.70;;;;;;5004387;28;20053;-78
2024/01/07 01:18:05;;;;;;;9.93;7.40;;;11.30;96.70;;;;;;5059747;28;20048;-78
2024/01/07 01:20:52;;;;;;;10.18;7.28;;;11.30;96.70;;;;;;5059783;28;20040;-78
2024/01/07 01:23:20;;;;;;;10.13;7.25;;;11.30;96.70;;;;;;5046527;28;20052;-78
2024/01/07 01:30:11;;;;;;;8.32;5.80;;;11.40;96.70;;;;;;4986611;28;20049;-78
2024/01/07 01:32:44;;;;;;;7.65;5.60;;;11.40;96.70;;;;;;4980629;28;20497;-78
2024/01/07 01:35:35;;;;;;;6.93;4.55;;;11.40;96.70;;;;;;4985169;28;20050;-78
2024/01/07 01:38:49;;;;;;;5.10;3.55;;;11.40;96.70;;;;;;4984258;28;20201;-78
2024/01/07 01:41:38;;;;;;;3.97;2.97;;;11.40;96.70;;;;;;4984847;28;20511;-78
2024/01/07 01:48:33;;;;;;;3.45;2.20;;;11.30;96.70;;;;;;4968944;28;20082;-77
2024/01/07 01:51:13;;;;;;;2.88;2.17;;;11.30;96.70;;;;;;4955808;28;20509;-78
2024/01/07 01:55:13;;;;;;;;;;;;;;;;;;;;;
2024/01/07 01:58:54;;;;;;;3.05;2.53;;;11.30;96.70;;;;;;4893765;29;20055;-78
2024/01/07 02:12:27;;;;;;;4.10;2.38;;;11.30;96.70;;;;;;5025858;28;20080;-78
2024/01/07 02:15:24;;;;;;;4.22;2.83;;;11.30;96.70;;;;;;5036251;28;20247;-79
2024/01/07 02:17:53;;;;;;;4.05;2.80;;;11.30;96.70;;;;;;5026682;28;20144;-79
2024/01/07 02:20:54;;;;;;;7.53;2.58;;;11.30;96.70;;;;;;5020277;28;20079;-78
2024/01/07 02:23:42;;;;;;;4.13;2.65;;;11.30;96.70;;;;;;5033768;28;20080;-78
2024/01/07 02:26:51;;;;;;;4.23;3.00;;;11.30;96.70;;;;;;4901355;29;20079;-78
2024/01/07 02:29:29;;;;;;;4.00;2.95;;;11.30;96.70;;;;;;4907780;29;20302;-78
2024/01/07 02:32:02;;;;;;;4.63;3.28;;;11.30;96.70;;;;;;4907015;29;20139;-78
2024/01/07 02:34:47;;;;;;;4.90;2.72;;;11.30;96.70;;;;;;4907482;29;20052;-78
2024/01/07 02:37:18;;;;;;;3.83;2.97;;;11.30;96.70;;;;;;4905890;29;20131;-78
2024/01/07 02:39:53;;;;;;;3.88;3.38;;;11.30;96.70;;;;;;4909007;29;20554;-78
2024/01/07 02:47:00;;;;;;;5.40;3.17;;;11.30;96.70;;;;;;4915136;29;20924;-78
2024/01/07 02:49:55;;;;;;;4.85;3.30;;;11.20;96.70;;;;;;4901071;29;20150;-79
2024/01/07 02:56:49;;;;;;;4.53;2.97;;;11.20;96.70;;;;;;4871135;29;20070;-78
2024/01/07 02:59:50;;;;;;;3.83;2.85;;;11.20;96.70;;;;;;4987246;28;20058;-78
2024/01/07 03:03:43;;;;;;;4.20;2.60;;;11.20;96.70;;;;;;4961873;28;20058;-78
2024/01/07 03:06:12;;;;;;;3.03;2.05;;;11.10;96.70;;;;;;5041072;28;20135;-78
2024/01/07 03:08:45;;;;;;;3.72;2.38;;;11.20;96.70;;;;;;5027093;28;20143;-78
2024/01/07 03:11:20;;;;;;;4.40;2.80;;;11.10;96.70;;;;;;5022426;28;20053;-78
2024/01/07 03:13:57;;;;;;;3.10;2.28;;;11.10;96.70;;;;;;5066444;28;20084;-78
2024/01/07 03:16:57;;;;;;;3.85;2.60;;;11.10;96.70;;;;;;5058627;28;20052;-78
2024/01/07 03:19:55;;;;;;;2.72;2.13;;;11.10;96.70;;;;;;5045661;28;20052;-78
2024/01/07 03:22:30;;;;;;;2.67;2.20;;;11.10;96.70;;;;;;5062971;28;20067;-78
2024/01/07 03:25:54;;;;;;;2.80;1.98;;;11.10;96.70;;;;;;5045109;28;20137;-79
2024/01/07 03:29:01;;;;;;;;;;;;;;;;;;;;;
2024/01/07 03:31:33;;;;;;;4.07;2.00;;;11.10;96.70;;;;;;5058506;28;20057;-79
2024/01/07 03:34:12;;;;;;;1.88;1.30;;;11.10;96.70;;;;;;5061920;28;20056;-77
2024/01/07 03:37:04;;;;;;;2.33;1.13;;;11.10;96.70;;;;;;5059721;28;20048;-78
2024/01/07 03:39:56;;;;;;;2.20;1.48;;;11.10;96.70;;;;;;5042471;28;20154;-78
2024/01/07 03:42:26;;;;;;;2.15;1.58;;;11.00;96.70;;;;;;4995521;28;20144;-77
2024/01/07 03:45:02;;;;;;;2.05;1.55;;;11.00;96.70;;;;;;5058218;28;20060;-78
2024/01/07 03:47:53;;;;;;;3.05;1.60;;;11.00;96.70;;;;;;5043517;28;20080;-78
2024/01/07 03:54:16;;;;;;;2.30;1.17;;;11.10;96.70;;;;;;5050199;28;20615;-78
2024/01/07 03:58:00;;;;;;;1.75;1.20;;;11.10;96.70;;;;;;5061170;28;20052;-78
2024/01/07 04:00:29;;;;;;;3.65;1.10;;;11.00;96.70;;;;;;5063467;28;20053;-78
2024/01/07 04:07:22;;;;;;;1.35;0.82;;;11.00;96.70;;;;;;4943332;28;20109;-78
2024/01/07 04:10:32;;;;;;;0.90;0.65;;;11.00;96.70;;;;;;5011870;28;20429;-78
2024/01/07 04:13:04;;;;;;;3.15;0.80;;;10.90;96.70;;;;;;5064732;28;20102;-78
2024/01/07 04:16:32;;;;;;;2.53;0.60;;;10.90;96.70;;;;;;4946156;28;20603;-78
2024/01/07 04:19:05;;;;;;;1.65;0.40;;;10.90;96.70;;;;;;5064763;28;20049;-78
2024/01/07 04:26:23;;;;;;;0.50;0.38;;;10.90;96.70;;;;;;5035209;28;20091;-78
2024/01/07 04:29:24;;;;;;;1.05;0.47;;;10.80;96.70;;;;;;5040795;28;20061;-78
2024/01/07 04:32:11;;;;;;;0.65;0.30;;;10.90;96.70;;;;;;5054341;28;20051;-78
2024/01/07 04:34:44;;;;;;;0.82;0.30;;;10.80;96.70;;;;;;5069156;28;20053;-78
2024/01/07 04:37:24;;;;;;;0.50;0.22;;;10.80;96.70;;;;;;5068953;28;20053;-78
2024/01/07 04:39:53;;;;;;;0.32;0.25;;;10.80;96.70;;;;;;5068312;28;20068;-78
2024/01/07 04:42:26;;;;;;;0.52;0.40;;;10.80;96.70;;;;;;5052811;28;20144;-78
2024/01/07 04:45:02;;;;;;;0.55;0.30;;;10.80;96.70;;;;;;5069387;28;20091;-78
2024/01/07 04:47:36;;;;;;;0.65;0.30;;;10.70;96.70;;;;;;5069283;28;20091;-77
2024/01/07 04:50:08;;;;;;;0.40;0.20;;;10.70;96.70;;;;;;5069647;28;20143;-77
2024/01/07 04:52:38;;;;;;;1.25;0.50;;;10.70;96.70;;;;;;5069409;28;20064;-78
2024/01/07 04:55:25;;;;;;;0.68;0.30;;;10.70;96.70;;;;;;5050559;28;20059;-78
2024/01/07 04:58:00;;;;;;;0.40;0.10;;;10.70;96.70;;;;;;5068825;28;20056;-78
2024/01/07 05:00:29;;;;;;;0.57;0.20;;;10.70;96.70;;;;;;5059804;28;20056;-78
2024/01/07 05:06:57;;;;;;;0.43;0.10;;;10.70;96.70;;;;;;4964411;28;20061;-78
2024/01/07 05:09:28;;;;;;;1.73;0.10;;;10.70;96.70;;;;;;5011369;28;20080;-78
2024/01/07 05:22:17;;;;;;;0.45;0.10;;;10.60;96.70;;;;;;5034642;28;20056;-78
2024/01/07 05:25:09;;;;;;;0.30;0.10;;;10.50;96.70;;;;;;5029938;28;20130;-77
2024/01/07 05:28:09;;;;;;;0.20;0.05;;;10.50;96.70;;;;;;5028320;28;20056;-78
2024/01/07 05:30:45;;;;;;;0.00;0.00;;;10.50;96.70;;;;;;5013555;28;20072;-78
2024/01/07 05:33:15;;;;;;;0.10;0.00;;;10.50;96.70;;;;;;5028561;28;20403;-79
2024/01/07 05:35:58;;;;;;;0.20;0.10;;;10.50;96.70;;;;;;5013997;28;20107;-77
2024/01/07 05:39:36;;;;;;;0.15;0.00;;;10.50;96.70;;;;;;5010518;28;20503;-78
2024/01/07 05:44:12;;;;;;;0.00;0.00;;;10.50;96.70;;;;;;4900774;28;20459;-78
2024/01/07 05:46:38;;;;;;;1.50;0.10;;;10.50;96.70;;;;;;4943426;28;20070;-77
2024/01/07 05:49:11;;;;;;;0.15;0.10;;;10.50;96.70;;;;;;4944315;28;20064;-77
2024/01/07 05:55:49;;;;;;;0.17;0.10;;;10.50;96.70;;;;;;4946581;28;20055;-77
2024/01/07 06:03:56;;;;;;;0.10;0.05;;;10.50;96.70;;;;;;4887452;29;20213;-78
2024/01/07 06:06:47;;;;;;;0.40;0.03;;;10.50;96.70;;;;;;4816988;29;20145;-78
2024/01/07 06:09:48;;;;;;;0.25;0.10;;;10.50;96.70;;;;;;4883275;29;20116;-78
2024/01/07 06:12:22;;;;;;;0.10;0.00;;;10.50;96.70;;;;;;4896748;29;20625;-78
2024/01/07 06:14:54;;;;;;;0.03;0.00;;;10.40;96.70;;;;;;4947010;28;20067;-78
2024/01/07 06:17:24;;;;;;;0.85;0.00;;;10.40;96.70;;;;;;4946277;28;20059;-77
2024/01/07 06:20:49;;;;;;;;;;;;;;;;;;;;;
2024/01/07 06:27:01;;;;;;;0.75;0.20;;;10.40;96.70;;;;;;4952113;28;20503;-77
2024/01/07 06:29:34;;;;;;;0.20;0.10;;;10.40;96.70;;;;;;4971020;28;20059;-78
2024/01/07 06:32:14;;;;;;;;;;;;;;;;;;;;;
2024/01/07 06:34:56;;;;;;;0.63;0.10;;;10.30;96.70;;;;;;4941961;28;20061;-78
2024/01/07 06:37:29;;;;;;;0.38;0.08;;;10.30;96.70;;;;;;5047532;28;20071;-78
2024/01/07 06:40:36;;;;;;;0.85;0.00;;;10.30;96.70;;;;;;5034911;28;20078;-78
2024/01/07 06:43:06;;;;;;;0.10;0.05;;;10.30;96.70;;;;;;5029249;28;20048;-78
2024/01/07 06:45:47;;;;;;;;;;;;;;;;;;;;;
2024/01/07 06:48:20;;;;;;;0.25;0.00;;;10.40;96.70;;;;;;5043513;28;20570;-78
2024/01/07 06:50:50;;;;;;;2.47;0.10;;;10.30;96.70;;;;;;5030127;28;20055;-78
2024/01/07 06:53:19;;;;;;;0.20;0.20;;;10.30;96.70;;;;;;5033325;28;20176;-78
2024/01/07 06:56:10;;;;;;;0.10;0.10;;;10.30;96.70;;;;;;5041246;28;20045;-78
2024/01/07 06:58:55;;;;;;;0.20;0.20;;;10.30;96.70;;;;;;5028208;28;20075;-78
2024/01/07 07:02:23;;;;;;;0.35;0.25;;;10.30;96.70;;;;;;5037965;28;20056;-78
2024/01/07 07:04:55;;;;;;;0.20;0.03;;;10.30;96.70;;;;;;5038994;28;20049;-78
2024/01/07 07:08:02;;;;;;;0.25;0.03;;;10.40;96.70;;;;;;5036274;28;20052;-78
2024/01/07 07:10:32;;;;;;;0.30;0.10;;;10.30;96.70;;;;;;5055924;28;20057;-78
2024/01/07 07:13:15;;;;;;;;;;;;;;;;;;;;;
2024/01/07 07:16:06;;;;;;;5.20;2.60;;;10.30;96.70;;;;;;5057457;28;20152;-78
2024/01/07 07:20:03;;;;;;;6.68;3.28;;;10.20;96.70;;;;;;5028443;28;20056;-78
2024/01/07 07:23:32;;;;;;;83.82;40.05;;;10.20;96.70;;;;;;5038963;28;20045;-78
2024/01/07 07:26:35;;;;;;;14.07;7.00;;;10.20;96.70;;;;;;5044385;28;20469;-77
2024/01/07 07:29:09;;;;;;;8.77;4.30;;;10.30;96.70;;;;;;5044085;28;20842;-78
2024/01/07 07:31:44;;;;;;;2.83;1.25;;;10.40;96.70;;;;;;5046196;28;20053;-78
2024/01/07 07:34:32;;;;;;;;;;;;;;;;;;;;;
2024/01/07 07:38:18;;;;;;;1.13;0.55;;;10.40;96.70;;;;;;5060356;28;20048;-78
2024/01/07 07:41:09;;;;;;;1.33;0.80;;;10.40;96.70;;;;;;5041233;28;20056;-78
2024/01/07 07:44:25;;;;;;;2.65;0.90;;;10.40;96.70;;;;;;5003452;28;20137;-78
2024/01/07 07:48:33;;;;;;;;;;;;;;;;;;;;;
2024/01/07 07:55:07;;;;;;;1.23;0.82;;;10.60;96.70;;;;;;4964019;28;20144;-78
2024/01/07 07:57:40;;;;;;;3.10;1.30;;;10.50;96.70;;;;;;4990217;28;20054;-78
2024/01/07 08:00:36;;;;;;;2.08;1.27;;;10.60;96.70;;;;;;5005077;28;20131;-77
2024/01/07 08:03:09;;;;;;;2.40;1.23;;;10.60;96.70;;;;;;5042965;28;20053;-78
2024/01/07 08:05:42;;;;;;;2.38;1.77;;;10.60;96.70;;;;;;5054852;28;20076;-78
2024/01/07 08:08:13;;;;;;;2.50;2.20;;;10.70;96.70;;;;;;5047932;28;20057;-77
2024/01/07 08:11:24;;;;;;;2.97;2.67;;;10.70;96.70;;;;;;4962757;28;20065;-78
2024/01/07 08:13:55;;;;;;;5.63;2.10;;;10.70;96.70;;;;;;5016612;28;20228;-78
2024/01/07 08:16:55;;;;;;;1.20;1.10;;;10.80;96.70;;;;;;5035716;28;20213;-77
2024/01/07 08:19:29;;;;;;;2.58;1.50;;;10.80;96.70;;;;;;5040610;28;20139;-78
2024/01/07 08:21:59;;;;;;;1.33;1.02;;;10.80;96.70;;;;;;5029394;28;20502;-78
2024/01/07 08:24:28;;;;;;;2.20;0.60;;;10.90;96.70;;;;;;5008970;28;20061;-81
2024/01/07 08:27:05;;;;;;;1.60;0.80;;;10.90;96.70;;;;;;5037647;28;20061;-79
2024/01/07 08:29:35;;;;;;;2.28;1.00;;;10.90;96.70;;;;;;5038010;28;20060;-77
2024/01/07 08:32:23;;;;;;;;;;;10.90;96.70;;;;;;5025449;28;20494;-79
2024/01/07 08:34:53;;;;;;;2.17;1.25;;;11.00;96.70;;;;;;5025727;28;19976;-78
2024/01/07 08:37:22;;;;;;;3.72;2.60;;;10.90;96.70;;;;;;5025934;28;20053;-77
2024/01/07 08:43:14;;;;;;;2.53;1.45;;;11.00;96.70;;;;;;5021286;28;20065;-78
2024/01/07 08:45:46;;;;;;;2.08;0.90;;;10.90;96.70;;;;;;5025042;28;20057;-78
2024/01/07 08:48:47;;;;;;;2.97;1.92;;;10.90;96.70;;;;;;5012364;28;20061;-78
2024/01/07 08:51:16;;;;;;;4.82;3.72;;;11.00;96.70;;;;;;5026468;28;20060;-78
2024/01/07 08:58:54;;;;;;;3.70;1.42;;;11.10;96.70;;;;;;4984006;28;20045;-78
2024/01/07 09:02:42;;;;;;;3.72;2.40;;;11.10;96.70;;;;;;4969840;28;20105;-77
2024/01/07 09:05:17;;;;;;;6.07;3.28;;;11.30;96.70;;;;;;4919857;28;20058;-78
2024/01/07 09:08:27;;;;;;;4.25;2.08;;;11.30;96.70;;;;;;4979069;28;20076;-75
2024/01/07 09:10:57;;;;;;;9.77;3.80;;;11.20;96.70;;;;;;4969596;28;20081;-76
2024/01/07 09:13:26;;;;;;;8.00;3.42;;;11.20;96.70;;;;;;4986204;28;20062;-76
2024/01/07 09:15:54;;;;;;;8.98;4.95;;;11.30;96.70;;;;;;4990850;28;20057;-77
2024/01/07 09:18:23;;;;;;;4.20;2.83;;;11.50;96.70;;;;;;4990539;28;20250;-76
2024/01/07 09:20:54;;;;;;;5.95;3.50;;;11.50;96.70;;;;;;4997018;28;20061;-76
2024/01/07 09:23:23;;;;;;;6.75;3.78;;;11.50;96.70;;;;;;5007100;28;20053;-77
2024/01/07 09:25:51;;;;;;;8.50;4.18;;;11.40;96.70;;;;;;5010855;28;20055;-77
2024/01/07 09:28:20;;;;;;;4.18;2.40;;;11.50;96.70;;;;;;5005597;28;20080;-76
2024/01/07 09:30:49;;;;;;;7.57;3.95;;;11.50;96.70;;;;;;5021450;28;20058;-76
2024/01/07 09:33:20;;;;;;;5.07;2.55;;;11.60;96.70;;;;;;5036470;28;20052;-76
2024/01/07 09:35:49;;;;;;;4.55;2.25;;;11.70;96.70;;;;;;5047373;28;20057;-76
2024/01/07 09:38:19;;;;;;;4.20;2.30;;;11.70;96.70;;;;;;5039211;28;20092;-76
2024/01/07 09:40:49;;;;;;;1.95;1.45;;;11.70;96.70;;;;;;5054225;28;20061;-75
2024/01/07 09:43:18;;;;;;;6.28;3.65;;;11.70;96.70;;;;;;5054840;28;20111;-76
2024/01/07 09:46:06;;;;;;;4.00;2.33;;;11.80;96.70;;;;;;5050613;28;20466;-74
2024/01/07 09:48:47;;;;;;;3.20;2.50;;;11.70;96.70;;;;;;5046548;28;20056;-74
2024/01/07 09:51:50;;;;;;;3.38;2.88;;;11.80;96.70;;;;;;5031302;28;20200;-74
2024/01/07 09:58:54;;;;;;;2.80;1.77;;;11.90;96.70;;;;;;5018375;28;20889;-74
2024/01/07 10:06:10;;;;;;;2.80;2.00;;;12.00;96.70;;;;;;4967241;28;20058;-73
2024/01/07 10:09:14;;;;;;;1.83;1.42;;;12.10;96.70;;;;;;4908189;29;20148;-73
2024/01/07 10:11:44;;;;;;;1.90;1.52;;;12.10;96.70;;;;;;4986326;28;20057;-72
2024/01/07 10:14:33;;;;;;;2.35;1.80;;;12.10;96.70;;;;;;5014294;28;20115;-73
2024/01/07 10:17:16;;;;;;;2.17;1.77;;;12.10;96.70;;;;;;5047423;28;20498;-73
2024/01/07 10:19:46;;;;;;;2.03;1.63;;;12.20;96.70;;;;;;5047456;28;20608;-74
2024/01/07 10:22:21;;;;;;;1.92;1.67;;;12.20;96.70;;;;;;5046448;28;20053;-75
2024/01/07 10:24:53;;;;;;;1.88;1.23;;;12.20;96.70;;;;;;5039523;28;21188;-75
2024/01/07 10:27:23;;;;;;;1.92;1.48;;;12.20;96.70;;;;;;5046768;28;20049;-75
2024/01/07 10:30:07;;;;;;;4.10;1.60;;;12.20;96.70;;;;;;5046115;28;20414;-74
2024/01/07 10:32:43;;;;;;;3.70;1.92;;;12.20;96.70;;;;;;5046764;28;20123;-73
2024/01/07 10:36:18;;;;;;;16.13;4.80;;;12.20;96.70;;;;;;5042534;28;20610;-72
2024/01/07 10:38:49;;;;;;;5.88;3.70;;;12.20;96.70;;;;;;4998748;28;20198;-74
2024/01/07 10:41:19;;;;;;;5.97;4.30;;;12.20;96.70;;;;;;5013004;28;20136;-74
2024/01/07 10:43:48;;;;;;;5.35;3.28;;;12.30;96.70;;;;;;5028256;28;20727;-73
2024/01/07 10:46:18;;;;;;;3.97;3.03;;;12.30;96.70;;;;;;5037443;28;20056;-73
2024/01/07 10:48:58;;;;;;;4.13;2.83;;;12.30;96.70;;;;;;5024687;28;20077;-74
2024/01/07 10:51:30;;;;;;;3.85;2.47;;;12.30;96.70;;;;;;5046740;28;20133;-73
2024/01/07 10:53:59;;;;;;;7.30;2.30;;;12.30;96.70;;;;;;5028599;28;20075;-72
2024/01/07 10:56:33;;;;;;;4.25;2.33;;;12.30;96.70;;;;;;5046172;28;20061;-72
2024/01/07 10:59:03;;;;;;;1.80;1.48;;;12.30;96.70;;;;;;5046533;28;20605;-72
2024/01/07 11:01:33;;;;;;;2.53;1.83;;;12.30;96.70;;;;;;5046459;28;20053;-71
2024/01/07 11:04:11;;;;;;;4.20;2.63;;;12.20;96.70;;;;;;5029095;28;20135;-72
2024/01/07 11:06:46;;;;;;;4.10;2.60;;;12.20;96.70;;;;;;5047185;28;20126;-72
2024/01/07 11:09:22;;;;;;;2.95;2.10;;;12.20;96.70;;;;;;5046756;28;20060;-72
2024/01/07 11:11:51;;;;;;;4.32;2.88;;;12.20;96.70;;;;;;5050194;28;20060;-72
2024/01/07 11:14:47;;;;;;;5.05;3.50;;;12.10;96.70;;;;;;5048153;28;20140;-74
2024/01/07 11:17:45;;;;;;;5.72;2.95;;;12.20;96.70;;;;;;5049337;28;20127;-73
2024/01/07 11:24:44;;;;;;;3.05;1.65;;;12.10;96.70;;;;;;5004157;28;20095;-74
2024/01/07 11:31:54;;;;;;;1.92;1.40;;;11.80;96.70;;;;;;4993374;28;20208;-74
2024/01/07 11:34:51;;;;;;;2.50;1.50;;;11.60;96.70;;;;;;5003458;28;20151;-74
2024/01/07 11:37:21;;;;;;;2.13;1.67;;;11.60;96.70;;;;;;5003450;28;20066;-74
2024/01/07 11:39:55;;;;;;;2.58;1.52;;;11.50;96.70;;;;;;5013762;28;20115;-73
2024/01/07 11:42:28;;;;;;;1.95;1.02;;;11.40;96.70;;;;;;5010382;28;20068;-73
2024/01/07 11:44:58;;;;;;;3.45;1.50;;;11.30;96.70;;;;;;4997281;28;20144;-72
2024/01/07 11:47:36;;;;;;;4.28;1.55;;;11.40;96.70;;;;;;5014166;28;20089;-71
2024/01/07 11:50:06;;;;;;;2.20;1.10;;;11.40;96.70;;;;;;5000158;28;20060;-69
2024/01/07 11:52:39;;;;;;;4.60;1.95;;;11.40;96.70;;;;;;5001058;28;20054;-70
2024/01/07 11:55:12;;;;;;;4.45;1.98;;;11.40;96.70;;;;;;5008579;28;20150;-70
2024/01/07 11:57:44;;;;;;;2.97;2.43;;;11.30;96.70;;;;;;5014965;28;20065;-70
2024/01/07 12:00:14;;;;;;;6.55;4.10;;;11.30;96.70;;;;;;5007362;28;20049;-69
2024/01/07 12:02:43;;;;;;;6.25;3.60;;;11.20;96.70;;;;;;4996484;28;20049;-70
2024/01/07 12:05:15;;;;;;;4.90;3.13;;;11.00;96.70;;;;;;5001482;28;20055;-69
2024/01/07 12:07:45;;;;;;;15.63;8.90;;;11.10;96.70;;;;;;5052534;28;20065;-71
2024/01/07 12:10:17;;;;;;;9.35;6.20;;;11.20;96.70;;;;;;5038115;28;20068;-71
2024/01/07 12:12:48;;;;;;;5.88;3.08;;;11.20;96.70;;;;;;5032828;28;20060;-70
2024/01/07 12:15:18;;;;;;;5.47;3.42;;;11.20;96.70;;;;;;5030061;28;20056;-71
2024/01/07 12:17:57;;;;;;;4.95;2.97;;;11.20;96.70;;;;;;5054922;28;20140;-70
2024/01/07 12:20:27;;;;;;;5.00;3.58;;;11.20;96.70;;;;;;5015197;28;20064;-70
2024/01/07 12:23:06;;;;;;;4.10;2.50;;;11.30;96.70;;;;;;5055047;28;20075;-69
2024/01/07 12:25:38;;;;;;;5.35;3.10;;;11.30;96.70;;;;;;5043901;28;20060;-69
2024/01/07 12:28:17;;;;;;;;;;;;;;;;;;;;;
2024/01/07 12:30:50;;;;;;;3.22;2.05;;;11.20;96.70;;;;;;5048494;28;20107;-71
2024/01/07 12:33:20;;;;;;;4.63;2.85;;;11.30;96.70;;;;;;5044031;28;20051;-70
2024/01/07 12:35:50;;;;;;;5.25;2.60;;;11.20;96.70;;;;;;5025714;28;20076;-69
2024/01/07 12:38:35;;;;;;;2.95;1.75;;;11.20;96.70;;;;;;5051054;28;20045;-70
2024/01/07 12:42:07;;;;;;;3.25;2.28;;;11.20;96.70;;;;;;5057721;28;20059;-71
2024/01/07 12:45:47;;;;;;;5.38;3.30;;;11.10;96.70;;;;;;4969144;28;20061;-70
2024/01/07 12:48:16;;;;;;;5.60;4.35;;;11.10;96.70;;;;;;4989090;28;20058;-73
2024/01/07 12:50:46;;;;;;;5.30;3.92;;;11.20;96.70;;;;;;4987724;28;20054;-71
2024/01/07 12:53:16;;;;;;;6.07;3.88;;;11.20;96.70;;;;;;4979364;28;20062;-72
2024/01/07 12:55:56;;;;;;;6.97;4.07;;;11.20;96.70;;;;;;4985961;28;20072;-71
2024/01/07 12:58:27;;;;;;;7.07;4.00;;;11.20;96.70;;;;;;4974186;28;20081;-71
2024/01/07 13:01:42;;;;;;;6.30;3.97;;;11.20;96.70;;;;;;4991276;28;20104;-71
2024/01/07 13:04:15;;;;;;;4.43;2.60;;;11.10;96.70;;;;;;4991988;28;20086;-71
2024/01/07 13:06:44;;;;;;;4.10;2.00;;;11.10;96.70;;;;;;4998132;28;20127;-71
2024/01/07 13:09:13;;;;;;;2.75;1.70;;;11.10;96.70;;;;;;4992244;28;20058;-71
2024/01/07 13:11:43;;;;;;;2.03;1.40;;;11.10;96.70;;;;;;4986302;28;20069;-71
2024/01/07 13:14:14;;;;;;;1.80;1.05;;;11.10;96.70;;;;;;4985581;28;20058;-70
2024/01/07 13:17:04;;;;;;;2.70;1.35;;;11.00;96.70;;;;;;4967607;28;20058;-71
2024/01/07 13:19:33;;;;;;;3.40;1.73;;;11.10;96.70;;;;;;4990993;28;20065;-71
2024/01/07 13:22:02;;;;;;;3.95;1.98;;;11.10;96.70;;;;;;5019347;28;20139;-71
2024/01/07 13:24:32;;;;;;;3.17;1.77;;;11.00;96.70;;;;;;5025005;28;20057;-71
2024/01/07 13:27:01;;;;;;;3.75;1.55;;;11.10;96.70;;;;;;5054636;28;20052;-72
2024/01/07 13:29:33;;;;;;;2.38;1.90;;;11.10;96.70;;;;;;5051163;28;20451;-70
2024/01/07 13:32:02;;;;;;;2.20;1.60;;;11.00;96.70;;;;;;5052371;28;20053;-71
2024/01/07 13:34:42;;;;;;;;;;;;;;;;;;;;;
2024/01/07 13:37:11;;;;;;;2.75;1.23;;;11.10;96.70;;;;;;5054347;28;20090;-70
2024/01/07 13:39:41;;;;;;;2.60;1.20;;;11.10;96.70;;;;;;5060980;28;20052;-71
2024/01/07 13:42:11;;;;;;;1.88;1.20;;;11.10;96.70;;;;;;5059904;28;20588;-72
2024/01/07 13:44:46;;;;;;;1.63;1.05;;;11.00;96.70;;;;;;5039340;28;20045;-72
2024/01/07 13:47:16;;;;;;;3.05;2.00;;;11.10;96.70;;;;;;5030343;28;20132;-71
2024/01/07 13:49:48;;;;;;;2.65;1.83;;;11.10;96.70;;;;;;5040207;28;20057;-71
2024/01/07 13:52:19;;;;;;;1.42;1.13;;;11.20;96.70;;;;;;5040911;28;20800;-72
2024/01/07 13:54:56;;;;;;;3.00;1.60;;;11.30;96.70;;;;;;5038425;28;20148;-71
2024/01/07 13:57:35;;;;;;;1.52;1.23;;;11.40;96.70;;;;;;5055051;28;20139;-72
2024/01/07 14:00:11;;;;;;;2.95;1.35;;;11.60;96.70;;;;;;5045821;28;20061;-72
2024/01/07 14:02:40;;;;;;;3.10;2.15;;;11.60;96.70;;;;;;5051999;28;20060;-71
2024/01/07 14:05:11;;;;;;;5.60;4.50;;;11.60;96.70;;;;;;5044566;28;20106;-71
2024/01/07 14:07:45;;;;;;;4.13;3.13;;;11.70;96.70;;;;;;5042304;28;20060;-71
2024/01/07 14:10:14;;;;;;;4.13;2.80;;;11.70;96.70;;;;;;5030312;28;20079;-72
2024/01/07 14:12:47;;;;;;;5.00;3.40;;;11.80;96.70;;;;;;5028995;28;20056;-71
2024/01/07 14:15:19;;;;;;;3.75;2.95;;;11.70;96.70;;;;;;5046781;28;20069;-71
2024/01/07 14:17:49;;;;;;;4.53;2.60;;;11.80;96.70;;;;;;5057090;28;20458;-73
2024/01/07 14:20:21;;;;;;;3.10;2.40;;;11.80;96.70;;;;;;5052345;28;20075;-71
2024/01/07 14:22:51;;;;;;;4.57;3.53;;;11.80;96.70;;;;;;5036997;28;20064;-72
2024/01/07 14:25:20;;;;;;;8.27;6.72;;;11.70;96.70;;;;;;5055943;28;20061;-70
2024/01/07 14:27:51;;;;;;;7.20;4.97;;;11.60;96.70;;;;;;5036263;28;20052;-71
2024/01/07 14:30:22;;;;;;;5.88;4.65;;;11.70;96.70;;;;;;5055181;28;20589;-69
2024/01/07 14:32:51;;;;;;;5.07;3.58;;;11.60;96.70;;;;;;5034182;28;20453;-71
2024/01/07 14:35:20;;;;;;;2.95;2.60;;;11.60;96.70;;;;;;5027284;28;20708;-71
2024/01/07 14:37:49;;;;;;;3.45;2.90;;;11.70;96.70;;;;;;5040938;28;20049;-71
2024/01/07 14:40:17;;;;;;;2.85;2.22;;;11.60;96.70;;;;;;5021823;28;20099;-71
2024/01/07 14:42:48;;;;;;;3.45;2.45;;;11.60;96.70;;;;;;5044741;28;20053;-71
2024/01/07 14:45:17;;;;;;;4.13;2.25;;;11.50;96.70;;;;;;5027703;28;20042;-72
2024/01/07 14:47:48;;;;;;;2.90;2.58;;;11.60;96.70;;;;;;5052279;28;20048;-72
2024/01/07 14:50:17;;;;;;;4.40;3.55;;;11.50;96.70;;;;;;5048802;28;20580;-72
2024/01/07 14:53:14;;;;;;;4.78;2.78;;;11.50;96.70;;;;;;5046179;28;20415;-73
2024/01/07 14:55:44;;;;;;;2.28;1.73;;;11.50;96.70;;;;;;5044016;28;20056;-72
2024/01/07 14:58:34;;;;;;;6.18;3.97;;;11.40;96.70;;;;;;5041068;28;20063;-73
2024/01/07 15:01:02;;;;;;;9.10;6.22;;;11.50;96.70;;;;;;5047458;28;20061;-73
2024/01/07 15:03:37;;;;;;;9.45;6.15;;;11.50;96.70;;;;;;5047355;28;20056;-73
2024/01/07 15:10:39;;;;;;;5.03;3.60;;;11.40;96.70;;;;;;5060383;28;20083;-72
2024/01/07 15:13:18;;;;;;;3.95;2.75;;;11.40;96.70;;;;;;5027317;28;20071;-73
2024/01/07 15:16:01;;;;;;;3.80;2.80;;;11.50;96.70;;;;;;5054806;28;20414;-71
2024/01/07 15:18:33;;;;;;;6.88;5.43;;;11.50;96.70;;;;;;5047024;28;20568;-71
2024/01/07 15:21:08;;;;;;;11.27;8.15;;;11.50;96.70;;;;;;5037193;28;20050;-72
2024/01/07 15:23:45;;;;;;;8.43;6.10;;;11.40;96.70;;;;;;5054284;28;20060;-72
2024/01/07 15:26:14;;;;;;;10.25;7.10;;;11.30;96.70;;;;;;5047456;28;20052;-73
2024/01/07 15:29:04;;;;;;;8.15;6.90;;;11.10;96.70;;;;;;5014888;28;20064;-73
2024/01/07 15:31:31;;;;;;;6.25;5.60;;;11.10;96.70;;;;;;5060830;28;20084;-73
2024/01/07 15:34:00;;;;;;;7.43;5.97;;;11.20;96.70;;;;;;5051118;28;20553;-73
2024/01/07 15:36:33;;;;;;;7.38;5.13;;;11.20;96.70;;;;;;5053383;28;20052;-73
2024/01/07 15:39:54;;;;;;;7.53;6.15;;;11.20;96.70;;;;;;5050041;28;20568;-72
2024/01/07 15:42:23;;;;;;;6.40;5.40;;;11.20;96.70;;;;;;5052881;28;20437;-73
2024/01/07 15:44:52;;;;;;;9.35;7.43;;;11.30;96.70;;;;;;5056221;28;20060;-73
2024/01/07 15:47:24;;;;;;;8.18;6.20;;;11.30;96.70;;;;;;5056370;28;20403;-73
2024/01/07 15:49:53;;;;;;;8.55;5.35;;;11.20;96.70;;;;;;5056137;28;20059;-73
2024/01/07 15:52:33;;;;;;;5.40;4.07;;;11.20;96.70;;;;;;5052760;28;20421;-72
2024/01/07 15:55:03;;;;;;;5.88;3.92;;;11.20;96.70;;;;;;5058036;28;20053;-73
2024/01/07 15:57:32;;;;;;;6.30;4.40;;;11.20;96.70;;;;;;5044097;28;20777;-73
2024/01/07 16:00:00;;;;;;;5.60;4.47;;;11.10;96.70;;;;;;5052346;28;20497;-72
2024/01/07 16:02:31;;;;;;;6.63;5.10;;;11.10;96.70;;;;;;5053269;28;20053;-72
2024/01/07 16:05:00;;;;;;;7.70;5.70;;;11.10;96.70;;;;;;5057309;28;20136;-71
2024/01/07 16:08:19;;;;;;;8.45;6.82;;;11.10;96.70;;;;;;5053791;28;20048;-72
2024/01/07 16:10:50;;;;;;;7.85;6.60;;;11.10;96.70;;;;;;5019914;28;20505;-71
2024/01/07 16:13:19;;;;;;;9.02;7.10;;;11.10;96.70;;;;;;5022464;28;20565;-72
2024/01/07 16:15:48;;;;;;;10.15;7.97;;;11.00;96.70;;;;;;5046695;28;20462;-72
2024/01/07 16:18:20;;;;;;;9.23;6.75;;;11.10;96.70;;;;;;5052308;28;20052;-73
2024/01/07 16:20:49;;;;;;;7.68;6.55;;;11.10;96.70;;;;;;5052121;28;20051;-71
2024/01/07 16:23:20;;;;;;;10.20;6.97;;;11.10;96.70;;;;;;5060785;28;20056;-73
2024/01/07 16:26:06;;;;;;;8.30;6.63;;;11.00;96.70;;;;;;5052747;28;20060;-71